createdAt,value
2019-05-18T07:06:44.035Z,32.88
2019-05-18T07:09:14.593Z,35.55
2019-05-18T07:11:44.865Z,34.43
2019-05-18T07:14:25.393Z,32.20
2019-05-18T07:16:48.213Z,30.72
2019-05-18T07:19:18.561Z,32.53
2019-05-18T07:21:48.816Z,33.70
2019-05-18T07:24:18.971Z,34.25
2019-05-18T07:26:49.090Z,30.50
2019-05-18T07:29:19.109Z,31.15
2019-05-18T07:31:49.266Z,30.97
2019-05-18T07:34:19.299Z,33.02
2019-05-18T07:36:49.439Z,32.10
2019-05-18T07:39:19.619Z,27.35
2019-05-18T07:41:49.581Z,29.05
2019-05-18T07:44:19.911Z,32.63
2019-05-18T07:46:50.007Z,33.58
2019-05-18T07:49:20.155Z,28.77
2019-05-18T07:51:50.168Z,25.37
2019-05-18T07:54:20.229Z,26.00
2019-05-18T07:56:50.284Z,23.92
2019-05-18T07:59:20.338Z,27.48
2019-05-18T08:01:50.368Z,22.67
2019-05-18T08:04:20.592Z,25.32
2019-05-18T08:06:50.719Z,29.27
2019-05-18T08:09:20.919Z,27.07
2019-05-18T08:11:51.015Z,29.32
2019-05-18T08:14:22.322Z,34.45
2019-05-18T08:16:52.404Z,28.00
2019-05-18T08:19:22.411Z,24.05
2019-05-18T08:21:53.702Z,28.30
2019-05-18T08:24:23.952Z,31.35
2019-05-18T08:26:54.063Z,26.77
2019-05-18T08:29:24.222Z,26.45
2019-05-18T08:31:54.247Z,30.00
2019-05-18T08:34:24.404Z,30.27
2019-05-18T08:36:54.648Z,28.10
2019-05-18T08:39:29.100Z,29.80
2019-05-18T08:41:59.234Z,34.45
2019-05-18T08:44:29.640Z,30.00
2019-05-18T08:47:00.168Z,29.12
2019-05-18T08:49:30.537Z,28.65
2019-05-18T08:52:08.354Z,30.32
2019-05-18T08:54:37.213Z,30.97
2019-05-18T08:57:08.423Z,28.57
2019-05-18T08:59:40.009Z,28.73
2019-05-18T09:02:10.564Z,28.70
2019-05-18T09:04:40.782Z,29.52
2019-05-18T09:07:12.061Z,34.00
2019-05-18T09:09:42.057Z,30.48
2019-05-18T09:12:19.068Z,29.20
2019-05-18T09:14:56.310Z,35.00
2019-05-18T09:17:35.443Z,31.10
2019-05-18T09:20:18.430Z,28.15
2019-05-18T09:22:51.394Z,27.00
2019-05-18T09:25:21.587Z,22.55
2019-05-18T09:27:51.652Z,18.82
2019-05-18T09:30:22.347Z,17.50
2019-05-18T09:32:52.942Z,20.65
2019-05-18T09:35:27.867Z,13.32
2019-05-18T09:37:58.107Z,14.40
2019-05-18T09:40:28.423Z,11.10
2019-05-18T09:42:58.618Z,13.28
2019-05-18T09:45:28.861Z,12.55
2019-05-18T09:48:02.184Z,9.83
2019-05-18T09:50:36.271Z,10.38
2019-05-18T09:53:06.585Z,16.77
2019-05-18T09:55:36.821Z,10.80
2019-05-18T09:58:07.218Z,9.53
2019-05-18T10:00:39.076Z,12.45
2019-05-18T10:03:10.555Z,10.10
2019-05-18T10:05:40.809Z,11.55
2019-05-18T10:08:11.145Z,16.02
2019-05-18T10:10:41.316Z,12.50
2019-05-18T10:13:13.001Z,12.65
2019-05-18T10:15:43.286Z,12.30
2019-05-18T10:18:13.517Z,11.20
2019-05-18T10:20:43.747Z,9.65
2019-05-18T10:23:14.119Z,9.43
2019-05-18T10:25:44.437Z,11.57
2019-05-18T10:28:16.912Z,14.05
2019-05-18T10:30:47.117Z,13.13
2019-05-18T10:33:17.318Z,18.00
2019-05-18T10:35:47.350Z,10.58
2019-05-18T10:38:18.015Z,13.32
2019-05-18T10:40:48.236Z,12.00
2019-05-18T10:43:18.325Z,9.10
2019-05-18T10:45:48.478Z,9.25
2019-05-18T10:48:18.601Z,11.12
2019-05-18T10:50:48.919Z,12.88
2019-05-18T10:53:28.370Z,10.70
2019-05-18T10:55:56.140Z,11.00
2019-05-18T10:58:30.407Z,8.20
2019-05-18T11:01:06.213Z,9.08
2019-05-18T11:03:36.377Z,9.33
2019-05-18T11:06:13.459Z,8.28
2019-05-18T11:08:59.359Z,7.37
2019-05-18T11:11:29.636Z,10.98
2019-05-18T11:14:02.324Z,7.80
2019-05-18T11:16:33.551Z,7.70
2019-05-18T11:19:03.788Z,10.53
2019-05-18T11:21:33.958Z,10.48
2019-05-18T11:24:04.325Z,12.37
2019-05-18T11:26:34.601Z,12.80
2019-05-18T11:29:04.837Z,11.22
2019-05-18T11:31:35.049Z,12.05
2019-05-18T11:34:05.149Z,9.63
2019-05-18T11:36:55.365Z,10.70
2019-05-18T11:39:25.411Z,9.05
2019-05-18T11:41:55.488Z,11.10
2019-05-18T11:44:25.687Z,9.70
2019-05-18T11:46:55.691Z,9.80
2019-05-18T11:49:28.964Z,8.55
2019-05-18T11:51:57.804Z,9.38
2019-05-18T11:54:27.810Z,9.93
2019-05-18T11:56:57.813Z,11.75
2019-05-18T11:59:28.081Z,8.13
2019-05-18T12:01:58.162Z,11.97
2019-05-18T12:04:29.543Z,10.28
2019-05-18T12:06:59.576Z,9.25
2019-05-18T12:09:29.824Z,10.38
2019-05-18T12:11:59.949Z,22.15
2019-05-18T12:14:30.125Z,11.22
2019-05-18T12:17:00.261Z,10.43
2019-05-18T12:19:30.319Z,10.35
2019-05-18T12:22:00.540Z,9.78
2019-05-18T12:24:30.659Z,13.58
2019-05-18T12:27:00.830Z,13.80
2019-05-18T12:29:34.093Z,13.93
2019-05-18T12:32:04.203Z,14.95
2019-05-18T12:34:34.745Z,9.00
2019-05-18T12:37:04.996Z,13.30
2019-05-18T12:39:35.188Z,9.30
2019-05-18T12:42:07.582Z,12.37
2019-05-18T12:44:37.314Z,9.60
2019-05-18T12:47:07.589Z,11.63
2019-05-18T12:49:38.910Z,9.75
2019-05-18T12:52:09.324Z,11.97
2019-05-18T12:54:46.380Z,9.95
2019-05-18T12:57:13.805Z,10.20
2019-05-18T12:59:43.826Z,9.30
2019-05-18T13:02:14.092Z,12.68
2019-05-18T13:04:44.514Z,10.85
2019-05-18T13:07:14.811Z,10.80
2019-05-18T13:09:45.082Z,12.65
2019-05-18T13:12:15.341Z,10.32
2019-05-18T13:14:45.484Z,12.18
2019-05-18T13:17:15.642Z,11.43
2019-05-18T13:19:45.946Z,9.38
2019-05-18T13:22:16.134Z,11.10
2019-05-18T13:24:46.283Z,10.15
2019-05-18T13:27:16.471Z,9.40
2019-05-18T13:29:46.593Z,10.00
2019-05-18T13:32:16.844Z,10.45
2019-05-18T13:34:46.998Z,11.25
2019-05-18T13:37:20.888Z,9.08
2019-05-18T13:39:52.036Z,9.45
2019-05-18T13:42:22.143Z,9.78
2019-05-18T13:44:52.239Z,11.68
2019-05-18T13:47:22.478Z,11.83
2019-05-18T13:49:52.555Z,10.00
2019-05-18T13:52:23.606Z,10.63
2019-05-18T13:55:03.533Z,11.15
2019-05-18T13:57:25.534Z,11.00
2019-05-18T13:59:56.753Z,10.90
2019-05-18T14:02:27.086Z,11.10
2019-05-18T14:04:57.350Z,10.55
2019-05-18T14:07:27.471Z,9.53
2019-05-18T14:09:57.788Z,14.55
2019-05-18T14:12:29.086Z,8.33
2019-05-18T14:14:59.255Z,9.83
2019-05-18T14:17:29.322Z,8.60
2019-05-18T14:19:59.468Z,9.58
2019-05-18T14:22:29.755Z,13.10
2019-05-18T14:25:01.266Z,9.88
2019-05-18T14:27:31.294Z,12.33
2019-05-18T14:30:01.451Z,11.70
2019-05-18T14:32:31.726Z,7.47
2019-05-18T14:35:01.877Z,9.43
2019-05-18T14:37:31.997Z,8.40
2019-05-18T14:40:02.032Z,8.88
2019-05-18T14:42:32.123Z,10.70
2019-05-18T14:45:03.231Z,9.08
2019-05-18T14:47:33.486Z,10.00
2019-05-18T14:50:05.366Z,7.85
2019-05-18T14:52:36.597Z,9.78
2019-05-18T14:55:06.847Z,11.12
2019-05-18T14:57:52.820Z,12.33
2019-05-18T15:00:23.189Z,8.43
2019-05-18T15:02:53.384Z,10.48
2019-05-18T15:05:23.733Z,8.70
2019-05-18T15:07:53.927Z,6.83
2019-05-18T15:10:25.094Z,6.83
2019-05-18T15:12:55.226Z,10.00
2019-05-18T15:15:25.431Z,7.28
2019-05-18T15:17:55.857Z,10.18
2019-05-18T15:20:26.044Z,7.37
2019-05-18T15:22:56.133Z,8.20
2019-05-18T15:25:26.359Z,7.40
2019-05-18T15:27:56.488Z,7.62
2019-05-18T15:30:26.773Z,10.80
2019-05-18T15:32:56.836Z,6.58
2019-05-18T15:35:26.969Z,9.98
2019-05-18T15:37:57.263Z,8.55
2019-05-18T15:40:27.442Z,5.78
2019-05-18T15:42:57.634Z,9.88
2019-05-18T15:45:27.563Z,5.80
2019-05-18T15:47:57.552Z,5.65
2019-05-18T15:50:28.075Z,6.60
2019-05-18T15:52:58.216Z,5.42
2019-05-18T15:55:28.831Z,5.28
2019-05-18T15:57:58.978Z,6.83
2019-05-18T16:00:29.202Z,5.20
2019-05-18T16:02:59.391Z,5.15
2019-05-18T16:05:29.620Z,4.97
2019-05-18T16:07:59.789Z,8.58
2019-05-18T16:10:30.073Z,4.92
2019-05-18T16:13:00.098Z,9.80
2019-05-18T16:15:30.213Z,4.45
2019-05-18T16:18:00.307Z,6.22
2019-05-18T16:20:30.548Z,5.85
2019-05-18T16:23:00.688Z,4.40
2019-05-18T16:25:30.885Z,5.75
2019-05-18T16:28:01.181Z,6.37
2019-05-18T16:30:31.333Z,8.00
2019-05-18T16:33:01.633Z,5.25
2019-05-18T16:35:32.294Z,5.30
2019-05-18T16:38:02.392Z,8.78
2019-05-18T16:40:32.459Z,10.60
2019-05-18T16:43:02.997Z,7.37
2019-05-18T16:45:33.114Z,9.38
2019-05-18T16:48:03.283Z,9.83
2019-05-18T16:50:33.473Z,7.25
2019-05-18T16:53:03.718Z,5.45
2019-05-18T16:55:34.235Z,7.55
2019-05-18T16:58:04.437Z,7.05
2019-05-18T17:00:34.572Z,6.78
2019-05-18T17:03:04.742Z,8.75
2019-05-18T17:05:35.002Z,8.55
2019-05-18T17:08:05.309Z,8.93
2019-05-18T17:10:35.535Z,6.80
2019-05-18T17:13:05.723Z,10.88
2019-05-18T17:15:35.931Z,6.60
2019-05-18T17:18:06.192Z,7.72
2019-05-18T17:20:36.256Z,5.28
2019-05-18T17:23:06.273Z,6.30
2019-05-18T17:25:36.444Z,5.80
2019-05-18T17:28:06.751Z,5.87
2019-05-18T17:30:36.972Z,6.87
2019-05-18T17:33:07.136Z,9.55
2019-05-18T17:35:37.215Z,9.85
2019-05-18T17:38:07.389Z,6.85
2019-05-18T17:40:37.573Z,8.05
2019-05-18T17:43:07.705Z,9.00
2019-05-18T17:45:37.843Z,10.00
2019-05-18T17:48:08.095Z,8.45
2019-05-18T17:50:38.205Z,8.18
2019-05-18T17:53:08.416Z,9.80
2019-05-18T17:55:38.453Z,6.70
2019-05-18T17:58:09.689Z,17.67
2019-05-18T18:00:39.873Z,10.45
2019-05-18T18:03:10.011Z,9.90
2019-05-18T18:05:40.375Z,11.22
2019-05-18T18:08:10.661Z,10.28
2019-05-18T18:10:40.929Z,10.23
2019-05-18T18:13:11.162Z,7.67
2019-05-18T18:15:41.657Z,9.45
2019-05-18T18:18:11.876Z,9.88
2019-05-18T18:20:42.120Z,12.98
2019-05-18T18:23:12.278Z,8.80
2019-05-18T18:25:42.315Z,10.63
2019-05-18T18:28:12.361Z,12.80
2019-05-18T18:30:42.487Z,9.95
2019-05-18T18:33:12.766Z,13.13
2019-05-18T18:35:42.874Z,10.18
2019-05-18T18:38:13.154Z,12.73
2019-05-18T18:40:45.132Z,10.45
2019-05-18T18:43:20.462Z,13.22
2019-05-18T18:45:50.402Z,16.32
2019-05-18T18:48:20.493Z,15.05
2019-05-18T18:50:50.694Z,15.53
2019-05-18T18:53:20.973Z,15.72
2019-05-18T18:55:52.433Z,12.28
2019-05-18T18:58:22.537Z,12.00
2019-05-18T19:00:52.679Z,14.55
2019-05-18T19:03:24.197Z,19.10
2019-05-18T19:05:54.282Z,16.97
2019-05-18T19:08:26.115Z,16.25
2019-05-18T19:11:02.385Z,15.10
2019-05-18T19:13:45.737Z,20.32
2019-05-18T19:16:15.721Z,16.25
2019-05-18T19:18:45.717Z,17.32
2019-05-18T19:21:17.474Z,20.23
2019-05-18T19:23:52.022Z,18.65
2019-05-18T19:26:31.444Z,16.80
2019-05-18T19:29:05.190Z,16.95
2019-05-18T19:31:35.684Z,15.98
2019-05-18T19:34:05.895Z,21.70
2019-05-18T19:36:36.596Z,17.70
2019-05-18T19:39:08.265Z,17.17
2019-05-18T19:41:39.000Z,18.15
2019-05-18T19:44:09.487Z,18.35
2019-05-18T19:46:39.741Z,19.85
2019-05-18T19:49:11.871Z,23.40
2019-05-18T19:51:44.174Z,16.48
2019-05-18T19:54:15.113Z,14.65
2019-05-18T19:56:46.068Z,18.37
2019-05-18T19:59:16.645Z,19.92
2019-05-18T20:01:46.866Z,17.55
2019-05-18T20:04:18.954Z,20.57
2019-05-18T20:06:49.074Z,15.05
2019-05-18T20:09:19.344Z,15.53
2019-05-18T20:11:49.535Z,14.73
2019-05-18T20:14:20.991Z,18.30
2019-05-18T20:16:52.205Z,15.72
2019-05-18T20:19:37.915Z,14.00
2019-05-18T20:21:54.423Z,16.30
2019-05-18T20:24:24.704Z,22.67
2019-05-18T20:26:54.842Z,22.20
2019-05-18T20:29:25.046Z,14.95
2019-05-18T20:31:57.041Z,23.15
2019-05-18T20:34:27.279Z,18.45
2019-05-18T20:36:57.470Z,24.12
2019-05-18T20:39:28.079Z,26.57
2019-05-18T20:41:58.151Z,21.80
2019-05-18T20:44:28.253Z,19.42
2019-05-18T20:46:58.500Z,22.07
2019-05-18T20:49:28.711Z,27.95
2019-05-18T20:51:58.853Z,18.27
2019-05-18T20:54:29.039Z,15.58
2019-05-18T20:57:00.511Z,15.25
2019-05-18T20:59:30.951Z,16.02
2019-05-18T21:02:01.116Z,16.32
2019-05-18T21:04:32.510Z,15.25
2019-05-18T21:07:05.786Z,20.23
2019-05-18T21:09:35.978Z,21.37
2019-05-18T21:12:07.459Z,21.02
2019-05-18T21:14:37.841Z,19.17
2019-05-18T21:17:08.432Z,15.03
2019-05-18T21:19:38.538Z,18.12
2019-05-18T21:22:08.790Z,16.10
2019-05-18T21:24:38.880Z,21.97
2019-05-18T21:27:08.883Z,19.95
2019-05-18T21:29:39.173Z,24.82
2019-05-18T21:32:09.326Z,18.17
2019-05-18T21:34:39.554Z,19.37
2019-05-18T21:37:09.739Z,19.35
2019-05-18T21:39:39.830Z,18.52
2019-05-18T21:42:09.942Z,20.75
2019-05-18T21:44:40.248Z,20.37
2019-05-18T21:47:10.278Z,18.57
2019-05-18T21:49:40.574Z,19.37
2019-05-18T21:52:10.738Z,21.07
2019-05-18T21:54:40.907Z,14.98
2019-05-18T21:57:11.034Z,18.90
2019-05-18T21:59:41.270Z,18.37
2019-05-18T22:02:11.565Z,19.02
2019-05-18T22:04:44.498Z,19.23
2019-05-18T22:07:14.752Z,21.25
2019-05-18T22:09:45.003Z,14.68
2019-05-18T22:12:15.278Z,18.80
2019-05-18T22:14:45.400Z,16.30
2019-05-18T22:17:15.571Z,18.57
2019-05-18T22:19:45.618Z,18.15
2019-05-18T22:22:15.855Z,22.85
2019-05-18T22:24:45.873Z,19.25
2019-05-18T22:27:16.098Z,15.55
2019-05-18T22:29:46.313Z,18.55
2019-05-18T22:32:16.528Z,15.75
2019-05-18T22:34:46.717Z,15.70
2019-05-18T22:37:16.925Z,22.25
2019-05-18T22:39:47.043Z,16.62
2019-05-18T22:42:17.165Z,14.63
2019-05-18T22:44:47.455Z,14.10
2019-05-18T22:47:17.823Z,16.97
2019-05-18T22:49:48.006Z,14.20
2019-05-18T22:52:19.446Z,14.20
2019-05-18T22:54:50.912Z,14.20
2019-05-18T22:57:23.441Z,14.13
2019-05-18T22:59:54.645Z,14.53
2019-05-18T23:02:24.726Z,16.17
2019-05-18T23:04:54.852Z,19.05
2019-05-18T23:07:24.918Z,14.10
2019-05-18T23:09:54.927Z,11.50
2019-05-18T23:12:25.202Z,15.88
2019-05-18T23:14:55.306Z,14.25
2019-05-18T23:17:25.445Z,12.70
2019-05-18T23:19:55.587Z,13.85
2019-05-18T23:22:25.806Z,11.25
2019-05-18T23:24:55.959Z,14.93
2019-05-18T23:27:25.951Z,11.93
2019-05-18T23:29:56.151Z,14.83
2019-05-18T23:32:26.293Z,17.27
2019-05-18T23:34:56.297Z,16.67
2019-05-18T23:37:26.564Z,13.22
2019-05-18T23:39:56.846Z,16.10
2019-05-18T23:42:26.950Z,12.40
2019-05-18T23:44:57.134Z,12.07
2019-05-18T23:47:27.271Z,17.37
2019-05-18T23:49:57.290Z,12.60
2019-05-18T23:52:28.067Z,13.65
2019-05-18T23:54:58.370Z,16.23
2019-05-18T23:57:28.445Z,12.53
2019-05-18T23:59:58.771Z,13.45
